Time;durP1;ratioP1;P1;durP2;ratioP2;P2;SDS_P1;SDS_P2;PMS_P1;PMS_P2;Temp;Humidity;BMP_temperature;BMP_pressure;BME280_temperature;BME280_humidity;BME280_pressure;Samples;Min_cycle;Max_cycle;Signal;HPM_P1;HPM_P2
2023/09/13 00:02:16;;;;;;;6.07;4.30;;;22.80;99.90;;;;;;5003973;28;20220;-73
2023/09/13 00:04:42;;;;;;;5.28;3.35;;;22.80;99.90;;;;;;5000484;28;20810;-73
2023/09/13 00:07:07;;;;;;;5.57;3.97;;;22.80;99.90;;;;;;5000679;28;20290;-73
2023/09/13 00:09:33;;;;;;;7.82;3.60;;;22.90;99.90;;;;;;5000640;28;20225;-71
2023/09/13 00:11:59;;;;;;;5.40;4.40;;;22.90;99.90;;;;;;4999363;28;20636;-73
2023/09/13 00:14:25;;;;;;;3.90;3.42;;;22.90;99.90;;;;;;4999560;28;20248;-73
2023/09/13 00:16:50;;;;;;;5.15;3.83;;;22.80;99.90;;;;;;5001159;28;20201;-73
2023/09/13 00:19:17;;;;;;;5.95;3.92;;;22.70;99.90;;;;;;5000520;28;20596;-73
2023/09/13 00:21:43;;;;;;;3.97;3.60;;;22.80;99.90;;;;;;5000374;28;20202;-73
2023/09/13 00:24:09;;;;;;;6.70;4.03;;;22.70;99.90;;;;;;5002616;28;20232;-73
2023/09/13 00:26:35;;;;;;;5.95;3.75;;;22.80;99.90;;;;;;4999721;28;20567;-73
2023/09/13 00:29:01;;;;;;;6.32;4.18;;;22.80;99.90;;;;;;5002917;28;20209;-73
2023/09/13 00:31:27;;;;;;;9.80;4.90;;;22.90;99.90;;;;;;4999918;28;20745;-73
2023/09/13 00:33:52;;;;;;;5.57;3.70;;;22.90;99.90;;;;;;4995520;28;20170;-73
2023/09/13 00:36:18;;;;;;;6.00;4.15;;;22.90;99.90;;;;;;5002479;28;20173;-73
2023/09/13 00:38:44;;;;;;;5.55;3.97;;;22.90;99.90;;;;;;4996165;28;20620;-73
2023/09/13 00:41:09;;;;;;;6.35;3.85;;;22.90;99.90;;;;;;5002547;28;20216;-73
2023/09/13 00:43:35;;;;;;;5.40;4.22;;;22.80;99.90;;;;;;5000628;28;20718;-73
2023/09/13 00:46:02;;;;;;;4.07;3.67;;;22.80;99.90;;;;;;5001962;28;20228;-73
2023/09/13 00:48:29;;;;;;;6.75;3.60;;;22.90;99.90;;;;;;5002496;28;20177;-73
2023/09/13 00:50:56;;;;;;;7.75;4.30;;;22.90;99.90;;;;;;5001503;28;20209;-73
2023/09/13 00:53:24;;;;;;;8.38;4.05;;;22.90;99.90;;;;;;5001374;28;20296;-73
2023/09/13 00:55:51;;;;;;;5.10;3.70;;;23.00;99.90;;;;;;4998768;28;20213;-74
2023/09/13 00:58:18;;;;;;;6.30;4.00;;;22.90;99.90;;;;;;5001640;28;20713;-73
2023/09/13 01:00:45;;;;;;;6.18;3.90;;;22.90;99.90;;;;;;5001021;28;20233;-73
2023/09/13 01:03:14;;;;;;;3.97;3.30;;;22.90;99.90;;;;;;5001920;28;20205;-71
2023/09/13 01:05:40;;;;;;;7.55;3.80;;;22.90;99.90;;;;;;5000767;28;20225;-73
2023/09/13 01:08:07;;;;;;;7.18;4.03;;;22.90;99.90;;;;;;4999678;28;20264;-73
2023/09/13 01:10:32;;;;;;;5.03;3.28;;;22.90;99.90;;;;;;4999034;28;20304;-73
2023/09/13 01:12:58;;;;;;;6.85;3.38;;;22.80;99.90;;;;;;4999944;28;20269;-72
2023/09/13 01:15:30;;;;;;;5.97;3.65;;;22.90;99.90;;;;;;5002616;28;20252;-73
2023/09/13 01:18:23;;;;;;;5.28;4.00;;;22.90;99.90;;;;;;4997583;28;20570;-73
2023/09/13 01:21:20;;;;;;;6.22;3.05;;;23.00;99.90;;;;;;4986903;28;20256;-73
2023/09/13 01:23:54;;;;;;;4.28;3.45;;;22.70;99.90;;;;;;4997350;28;20209;-73
2023/09/13 01:26:42;;;;;;;6.20;3.35;;;22.70;99.90;;;;;;4996738;28;20208;-73
2023/09/13 01:29:14;;;;;;;5.30;2.92;;;22.80;99.90;;;;;;5002766;28;20761;-73
2023/09/13 01:31:40;;;;;;;4.20;3.30;;;22.90;99.90;;;;;;4996877;28;20228;-72
2023/09/13 01:34:06;;;;;;;5.07;3.15;;;22.90;99.90;;;;;;4997175;28;20586;-73
2023/09/13 01:36:32;;;;;;;4.75;3.28;;;22.80;99.90;;;;;;4999294;28;20181;-73
2023/09/13 01:38:57;;;;;;;5.13;3.28;;;22.90;99.90;;;;;;4998777;28;20209;-73
2023/09/13 01:41:30;;;;;;;5.55;3.50;;;22.90;99.90;;;;;;4999383;28;20224;-73
2023/09/13 01:43:56;;;;;;;4.10;3.60;;;22.90;99.90;;;;;;5002083;28;20251;-73
2023/09/13 01:46:28;;;;;;;6.07;3.38;;;23.00;99.90;;;;;;4999413;28;20708;-73
2023/09/13 01:48:56;;;;;;;6.30;3.72;;;23.10;99.90;;;;;;5002829;28;20173;-73
2023/09/13 01:51:25;;;;;;;6.35;3.88;;;23.10;99.90;;;;;;5002650;28;20219;-73
2023/09/13 01:53:50;;;;;;;3.83;3.30;;;23.20;99.90;;;;;;4997521;28;20744;-73
2023/09/13 01:56:21;;;;;;;9.38;3.42;;;23.10;99.90;;;;;;4998677;28;20258;-73
2023/09/13 01:58:48;;;;;;;12.38;3.47;;;23.10;99.90;;;;;;4998960;28;20711;-73
2023/09/13 02:01:14;;;;;;;6.15;3.80;;;23.10;99.90;;;;;;5004517;28;20296;-73
2023/09/13 02:03:39;;;;;;;6.72;2.80;;;22.90;99.90;;;;;;5003796;28;20613;-73
2023/09/13 02:06:05;;;;;;;6.13;2.45;;;22.50;99.90;;;;;;5005307;28;20817;-73
2023/09/13 02:08:30;;;;;;;5.15;3.05;;;22.00;99.90;;;;;;5000182;28;20250;-73
2023/09/13 02:10:56;;;;;;;6.32;3.20;;;21.90;99.90;;;;;;5004168;28;20217;-73
2023/09/13 02:13:22;;;;;;;8.18;3.67;;;21.80;99.90;;;;;;5004493;28;20201;-73
2023/09/13 02:15:47;;;;;;;5.22;3.50;;;21.70;99.90;;;;;;5003779;28;20265;-73
2023/09/13 02:18:13;;;;;;;5.63;3.40;;;21.70;99.90;;;;;;5005807;28;20207;-71
2023/09/13 02:20:38;;;;;;;7.45;3.83;;;21.60;99.90;;;;;;4999685;28;20220;-74
2023/09/13 02:23:04;;;;;;;6.10;3.17;;;21.60;99.90;;;;;;5005682;28;20217;-72
2023/09/13 02:25:45;;;;;;;6.13;3.20;;;21.50;99.90;;;;;;5002415;28;20217;-73
2023/09/13 02:28:11;;;;;;;6.10;3.17;;;21.30;99.90;;;;;;4991449;28;20213;-73
2023/09/13 02:30:37;;;;;;;6.35;2.72;;;21.20;99.90;;;;;;4994498;28;20228;-73
2023/09/13 02:33:03;;;;;;;5.32;3.40;;;21.20;99.90;;;;;;5003167;28;20233;-72
2023/09/13 02:35:30;;;;;;;7.22;2.90;;;21.20;99.90;;;;;;5004952;28;20243;-73
2023/09/13 02:37:55;;;;;;;8.07;2.97;;;21.20;99.90;;;;;;4999677;28;20210;-73
2023/09/13 02:40:21;;;;;;;4.60;2.67;;;21.20;99.90;;;;;;5003714;28;20267;-73
2023/09/13 02:42:47;;;;;;;3.75;2.90;;;21.20;99.90;;;;;;5001867;28;20567;-73
2023/09/13 02:45:13;;;;;;;6.68;3.20;;;20.90;99.90;;;;;;5004421;28;20232;-73
2023/09/13 02:47:39;;;;;;;6.32;2.85;;;21.10;99.90;;;;;;5002055;28;20233;-72
2023/09/13 02:50:05;;;;;;;5.78;3.10;;;21.10;99.90;;;;;;5002807;28;20221;-73
2023/09/13 02:52:33;;;;;;;5.03;3.17;;;21.00;99.90;;;;;;5001513;28;20324;-73
2023/09/13 02:55:00;;;;;;;5.03;2.75;;;21.00;99.90;;;;;;5003979;28;20185;-73
2023/09/13 02:57:26;;;;;;;4.05;2.78;;;20.90;99.90;;;;;;5003232;28;20265;-71
2023/09/13 02:59:52;;;;;;;6.72;3.20;;;20.90;99.90;;;;;;5001825;28;20214;-73
2023/09/13 03:02:18;;;;;;;8.25;3.35;;;20.70;99.90;;;;;;5001199;28;20255;-73
2023/09/13 03:04:44;;;;;;;6.25;2.97;;;20.60;99.90;;;;;;5003753;28;20726;-72
2023/09/13 03:07:10;;;;;;;4.50;2.92;;;20.60;99.90;;;;;;5002649;28;20573;-73
2023/09/13 03:09:36;;;;;;;5.75;3.03;;;20.50;99.90;;;;;;5003300;28;20208;-73
2023/09/13 03:12:02;;;;;;;6.70;3.10;;;20.40;99.90;;;;;;5001263;28;20206;-73
2023/09/13 03:14:31;;;;;;;4.53;3.00;;;20.40;99.90;;;;;;5002340;28;20201;-73
2023/09/13 03:16:56;;;;;;;6.00;3.30;;;20.30;99.90;;;;;;5001072;28;20726;-74
2023/09/13 03:19:22;;;;;;;5.45;3.30;;;20.20;99.90;;;;;;5004923;28;20209;-71
2023/09/13 03:21:49;;;;;;;4.38;2.75;;;20.20;99.90;;;;;;4998918;28;20256;-73
2023/09/13 03:24:15;;;;;;;4.95;2.60;;;20.10;99.90;;;;;;5005906;28;20658;-73
2023/09/13 03:26:41;;;;;;;5.82;2.70;;;20.20;99.90;;;;;;5001262;28;20260;-72
2023/09/13 03:29:06;;;;;;;6.28;3.42;;;20.30;99.90;;;;;;5001435;28;20213;-73
2023/09/13 03:31:32;;;;;;;6.13;3.10;;;20.40;99.90;;;;;;5001921;28;20205;-72
2023/09/13 03:33:59;;;;;;;7.82;3.38;;;20.50;99.90;;;;;;5002979;28;20675;-73
2023/09/13 03:36:28;;;;;;;4.68;3.05;;;20.60;99.90;;;;;;5001808;28;20560;-73
2023/09/13 03:38:54;;;;;;;7.53;3.13;;;20.50;99.90;;;;;;5000719;28;20233;-73
2023/09/13 03:41:22;;;;;;;4.53;2.78;;;20.50;99.90;;;;;;5002439;28;20610;-73
2023/09/13 03:43:49;;;;;;;5.95;3.03;;;20.50;99.90;;;;;;5002445;28;20211;-73
2023/09/13 03:46:14;;;;;;;6.13;2.90;;;20.40;99.90;;;;;;5002226;28;20317;-73
2023/09/13 03:48:40;;;;;;;6.20;2.88;;;20.50;99.90;;;;;;5003917;28;20691;-72
2023/09/13 03:51:07;;;;;;;4.40;2.90;;;20.50;99.90;;;;;;4998670;28;20241;-73
2023/09/13 03:53:33;;;;;;;4.28;2.97;;;20.60;99.90;;;;;;5003544;28;20209;-73
2023/09/13 03:55:59;;;;;;;3.45;2.83;;;20.50;99.90;;;;;;5000794;28;20221;-73
2023/09/13 03:58:25;;;;;;;3.90;2.72;;;20.50;99.90;;;;;;5000091;28;20237;-73
2023/09/13 04:00:51;;;;;;;4.57;2.92;;;20.40;99.90;;;;;;4998446;28;20228;-73
2023/09/13 04:03:18;;;;;;;4.43;2.55;;;20.30;99.90;;;;;;5003071;28;20173;-73
2023/09/13 04:05:43;;;;;;;5.68;3.20;;;20.30;99.90;;;;;;4999076;28;20699;-72
2023/09/13 04:08:09;;;;;;;4.85;4.03;;;20.30;99.90;;;;;;5003347;28;20216;-73
2023/09/13 04:10:36;;;;;;;6.70;3.83;;;20.20;99.90;;;;;;5000962;28;20248;-73
2023/09/13 04:13:01;;;;;;;5.30;3.50;;;20.10;99.90;;;;;;5002488;28;20227;-74
2023/09/13 04:15:27;;;;;;;6.28;3.97;;;20.10;99.90;;;;;;4999097;28;20186;-73
2023/09/13 04:17:53;;;;;;;5.68;3.90;;;20.00;99.90;;;;;;5001931;28;20204;-73
2023/09/13 04:20:19;;;;;;;14.07;5.22;;;19.90;99.90;;;;;;5000994;28;20300;-72
2023/09/13 04:22:45;;;;;;;6.72;4.80;;;20.00;99.90;;;;;;5001681;28;20250;-71
2023/09/13 04:25:11;;;;;;;7.38;3.95;;;19.90;99.90;;;;;;5000371;28;20248;-71
2023/09/13 04:27:37;;;;;;;8.57;3.90;;;19.90;99.90;;;;;;5000131;28;20200;-73
2023/09/13 04:30:03;;;;;;;10.40;5.05;;;20.10;99.90;;;;;;4998402;28;20217;-73
2023/09/13 04:32:28;;;;;;;9.23;4.43;;;20.10;99.90;;;;;;5003635;28;20205;-73
2023/09/13 04:34:55;;;;;;;8.27;4.63;;;20.10;99.90;;;;;;4999795;28;20695;-73
2023/09/13 04:37:21;;;;;;;7.60;4.85;;;20.20;99.90;;;;;;4996010;28;20266;-73
2023/09/13 04:39:46;;;;;;;9.45;5.18;;;20.10;99.90;;;;;;4998929;28;20210;-71
2023/09/13 04:42:13;;;;;;;8.70;4.75;;;20.10;99.90;;;;;;5002708;28;20174;-71
2023/09/13 04:44:39;;;;;;;9.57;4.90;;;20.10;99.90;;;;;;4999765;28;20213;-73
2023/09/13 04:47:05;;;;;;;8.88;5.03;;;20.20;99.90;;;;;;4999127;28;20213;-73
2023/09/13 04:49:31;;;;;;;13.38;4.60;;;20.20;99.90;;;;;;5002953;28;20211;-73
2023/09/13 04:51:57;;;;;;;7.97;4.72;;;20.40;99.90;;;;;;4997728;28;20273;-72
2023/09/13 04:54:23;;;;;;;7.65;5.20;;;20.40;99.90;;;;;;5001489;28;20182;-73
2023/09/13 04:56:49;;;;;;;10.23;5.18;;;20.40;99.90;;;;;;5001978;28;20216;-73
2023/09/13 04:59:15;;;;;;;11.75;6.78;;;20.30;99.90;;;;;;4992667;28;20218;-72
2023/09/13 05:01:41;;;;;;;8.68;5.65;;;20.30;99.90;;;;;;5002416;28;20304;-73
2023/09/13 05:04:07;;;;;;;10.93;6.72;;;20.30;99.90;;;;;;4998277;28;20681;-73
2023/09/13 05:06:33;;;;;;;13.48;6.38;;;20.20;99.90;;;;;;4999662;28;20183;-73
2023/09/13 05:08:59;;;;;;;9.20;6.03;;;20.20;99.90;;;;;;4999290;28;20292;-73
2023/09/13 05:11:25;;;;;;;12.27;7.15;;;20.20;99.90;;;;;;4999435;28;20244;-73
2023/09/13 05:13:51;;;;;;;12.52;6.68;;;20.40;99.90;;;;;;5000003;28;20221;-73
2023/09/13 05:16:19;;;;;;;12.20;7.18;;;20.50;99.90;;;;;;5001717;28;20197;-73
2023/09/13 05:18:46;;;;;;;9.52;6.90;;;20.60;99.90;;;;;;5000852;28;20169;-73
2023/09/13 05:21:11;;;;;;;12.98;7.32;;;20.80;99.90;;;;;;5001020;28;20209;-71
2023/09/13 05:23:37;;;;;;;15.20;7.82;;;20.90;99.90;;;;;;5001019;28;20698;-73
2023/09/13 05:26:03;;;;;;;11.30;7.55;;;21.00;99.90;;;;;;5000535;28;20715;-73
2023/09/13 05:28:33;;;;;;;11.27;7.00;;;21.00;99.90;;;;;;5001598;28;20205;-73
2023/09/13 05:31:02;;;;;;;10.75;7.28;;;21.10;99.90;;;;;;4997508;28;20216;-73
2023/09/13 05:33:28;;;;;;;12.77;8.30;;;21.00;99.90;;;;;;4999710;28;20265;-73
2023/09/13 05:35:55;;;;;;;11.15;8.23;;;20.80;99.90;;;;;;5000251;28;20292;-73
2023/09/13 05:38:21;;;;;;;10.50;7.47;;;20.80;99.90;;;;;;4997023;28;20205;-73
2023/09/13 05:40:46;;;;;;;12.68;7.85;;;20.90;99.90;;;;;;4999767;28;20220;-72
2023/09/13 05:43:12;;;;;;;13.20;7.75;;;21.00;99.90;;;;;;4996918;28;20208;-71
2023/09/13 05:45:39;;;;;;;9.80;7.15;;;21.10;99.90;;;;;;5002522;28;20201;-73
2023/09/13 05:48:05;;;;;;;10.93;7.13;;;21.20;99.90;;;;;;4998459;28;20289;-73
2023/09/13 05:50:30;;;;;;;11.82;8.55;;;21.50;99.90;;;;;;4996467;28;20213;-72
2023/09/13 05:52:56;;;;;;;11.80;8.25;;;21.70;99.90;;;;;;4997589;28;20627;-73
2023/09/13 05:55:22;;;;;;;12.52;8.85;;;21.70;99.90;;;;;;4998133;28;20694;-73
2023/09/13 05:57:49;;;;;;;13.90;8.45;;;21.90;99.90;;;;;;4999885;28;20173;-71
2023/09/13 06:00:15;;;;;;;14.07;9.30;;;23.00;99.90;;;;;;5000042;28;20197;-72
2023/09/13 06:02:41;;;;;;;11.93;7.72;;;23.50;99.90;;;;;;4997404;28;20220;-72
2023/09/13 06:05:09;;;;;;;12.77;7.88;;;23.70;99.90;;;;;;5000298;28;20304;-71
2023/09/13 06:07:37;;;;;;;16.30;7.75;;;24.50;99.90;;;;;;4994330;28;20759;-71
2023/09/13 06:10:04;;;;;;;11.45;7.47;;;26.60;99.90;;;;;;4999925;28;20575;-72
2023/09/13 06:12:31;;;;;;;8.05;6.97;;;28.60;99.90;;;;;;4999219;28;20550;-73
2023/09/13 06:14:57;;;;;;;9.70;7.10;;;29.40;99.90;;;;;;4999354;28;20594;-73
2023/09/13 06:17:23;;;;;;;8.65;7.03;;;30.40;99.90;;;;;;4992856;28;20855;-73
2023/09/13 06:19:50;;;;;;;7.03;6.32;;;31.00;99.90;;;;;;4999887;28;20714;-72
2023/09/13 06:22:17;;;;;;;7.15;5.80;;;30.90;99.90;;;;;;4997452;28;20214;-73
2023/09/13 06:24:42;;;;;;;7.32;5.78;;;31.50;99.90;;;;;;4999951;28;20216;-73
2023/09/13 06:27:08;;;;;;;7.55;5.07;;;32.20;99.90;;;;;;4998343;28;20205;-73
2023/09/13 06:29:34;;;;;;;10.48;5.65;;;32.20;99.90;;;;;;5002121;28;20227;-73
2023/09/13 06:32:01;;;;;;;7.35;5.78;;;32.40;99.90;;;;;;4997740;28;20307;-71
2023/09/13 06:34:27;;;;;;;10.15;5.45;;;32.60;99.90;;;;;;5001704;28;20208;-71
2023/09/13 06:36:53;;;;;;;8.38;5.35;;;32.80;99.90;;;;;;4994030;28;20196;-69
2023/09/13 06:39:19;;;;;;;7.20;5.22;;;32.80;99.90;;;;;;5001265;28;20211;-70
2023/09/13 06:41:45;;;;;;;5.97;5.32;;;33.30;99.90;;;;;;4998920;28;20196;-71
2023/09/13 06:44:10;;;;;;;7.88;5.05;;;33.40;99.90;;;;;;4994254;28;20220;-71
2023/09/13 06:46:37;;;;;;;9.68;5.75;;;31.50;99.90;;;;;;5001236;28;20676;-71
2023/09/13 06:49:03;;;;;;;8.27;4.95;;;30.20;99.90;;;;;;5003764;28;20211;-70
2023/09/13 06:51:29;;;;;;;5.75;4.53;;;28.50;99.90;;;;;;5003063;28;20181;-71
2023/09/13 06:53:55;;;;;;;5.70;5.03;;;27.40;99.90;;;;;;5004570;28;20205;-71
2023/09/13 06:56:20;;;;;;;6.97;5.30;;;26.00;99.90;;;;;;5001990;28;20198;-73
2023/09/13 06:58:46;;;;;;;5.05;4.53;;;25.10;99.90;;;;;;5004970;28;20610;-73
2023/09/13 07:01:12;;;;;;;8.18;4.55;;;24.60;99.90;;;;;;5001278;28;20210;-71
2023/09/13 07:03:38;;;;;;;8.00;4.93;;;24.20;99.90;;;;;;5000326;28;20204;-73
2023/09/13 07:06:04;;;;;;;6.53;4.45;;;23.80;99.90;;;;;;5000433;28;20242;-74
2023/09/13 07:08:29;;;;;;;6.75;4.55;;;23.70;99.90;;;;;;5003823;28;20201;-73
2023/09/13 07:10:55;;;;;;;7.35;4.65;;;23.70;99.90;;;;;;5002284;28;20244;-72
2023/09/13 07:13:21;;;;;;;6.35;4.25;;;23.50;99.90;;;;;;5003070;28;20201;-73
2023/09/13 07:15:47;;;;;;;5.00;4.38;;;23.50;99.90;;;;;;5003082;28;20204;-71
2023/09/13 07:18:13;;;;;;;5.85;4.32;;;23.50;99.90;;;;;;5003286;28;20264;-72
2023/09/13 07:20:39;;;;;;;6.32;4.90;;;23.50;99.90;;;;;;4999859;28;20647;-72
2023/09/13 07:23:04;;;;;;;4.53;3.92;;;23.30;99.90;;;;;;5002158;28;20247;-71
2023/09/13 07:25:30;;;;;;;6.55;4.55;;;23.20;99.90;;;;;;4994108;28;20256;-72
2023/09/13 07:27:55;;;;;;;11.00;4.68;;;23.00;99.90;;;;;;5004483;28;20231;-71
2023/09/13 07:30:21;;;;;;;5.43;3.88;;;22.80;99.90;;;;;;4999813;28;20680;-72
2023/09/13 07:32:50;;;;;;;5.55;4.25;;;22.80;99.90;;;;;;4998295;28;20198;-72
2023/09/13 07:35:15;;;;;;;4.57;4.07;;;22.60;99.90;;;;;;4997278;28;20702;-72
2023/09/13 07:37:41;;;;;;;10.95;4.40;;;22.50;99.90;;;;;;5002354;28;20208;-71
2023/09/13 07:40:07;;;;;;;5.32;4.28;;;22.60;99.90;;;;;;5002608;28;20217;-73
2023/09/13 07:42:32;;;;;;;6.72;4.28;;;22.70;99.90;;;;;;5003950;28;20186;-72
2023/09/13 07:44:59;;;;;;;6.03;4.60;;;22.60;99.90;;;;;;5000757;28;20267;-72
2023/09/13 07:47:28;;;;;;;6.97;4.15;;;22.40;99.90;;;;;;5002783;28;20248;-72
2023/09/13 07:49:54;;;;;;;5.32;3.40;;;22.30;99.90;;;;;;5002380;28;20220;-71
2023/09/13 07:52:20;;;;;;;6.88;3.42;;;22.20;99.90;;;;;;5002547;28;20205;-72
2023/09/13 07:54:46;;;;;;;5.55;4.10;;;22.10;99.90;;;;;;4999993;28;20201;-72
2023/09/13 07:57:11;;;;;;;4.50;3.90;;;22.00;99.90;;;;;;4998660;28;20180;-70
2023/09/13 07:59:38;;;;;;;6.93;4.22;;;22.10;99.90;;;;;;5001029;28;20557;-73
2023/09/13 08:02:04;;;;;;;5.78;3.90;;;22.30;99.90;;;;;;5003336;28;20213;-73
2023/09/13 08:04:30;;;;;;;8.50;3.70;;;22.40;99.90;;;;;;4999609;28;20289;-72
2023/09/13 08:06:55;;;;;;;6.20;4.00;;;22.40;99.90;;;;;;4998625;28;20313;-73
2023/09/13 08:09:21;;;;;;;7.15;4.03;;;22.50;99.90;;;;;;5001950;28;20564;-72
2023/09/13 08:11:47;;;;;;;4.80;3.70;;;22.70;99.90;;;;;;5002021;28;20243;-72
2023/09/13 08:14:13;;;;;;;5.70;3.58;;;22.80;99.90;;;;;;5000742;28;20694;-70
2023/09/13 08:16:39;;;;;;;5.43;4.00;;;22.90;99.90;;;;;;4995549;28;20629;-72
2023/09/13 08:19:04;;;;;;;6.10;4.68;;;23.40;99.90;;;;;;5001534;28;20200;-73
2023/09/13 08:21:30;;;;;;;3.78;3.33;;;23.50;99.90;;;;;;5000821;28;20176;-72
2023/09/13 08:23:55;;;;;;;5.78;3.58;;;23.50;99.90;;;;;;5002291;28;20692;-73
2023/09/13 08:26:21;;;;;;;8.10;4.20;;;23.50;99.90;;;;;;5001099;28;20222;-73
2023/09/13 08:28:47;;;;;;;5.60;3.35;;;22.90;99.90;;;;;;5002581;28;20205;-72
2023/09/13 08:31:12;;;;;;;4.13;3.50;;;22.90;99.90;;;;;;5000309;28;20775;-71
2023/09/13 08:33:38;;;;;;;5.60;3.35;;;22.90;99.90;;;;;;4999934;28;20182;-73
2023/09/13 08:36:04;;;;;;;6.70;3.05;;;23.10;99.90;;;;;;5003546;28;20249;-72
2023/09/13 08:38:30;;;;;;;5.20;3.33;;;23.40;99.90;;;;;;4999416;28;20320;-72
2023/09/13 08:40:55;;;;;;;5.75;3.70;;;23.60;99.90;;;;;;4995012;28;20923;-73
2023/09/13 08:43:22;;;;;;;5.32;3.20;;;25.00;99.90;;;;;;5000173;28;20209;-73
2023/09/13 08:45:51;;;;;;;5.18;2.78;;;26.20;99.90;;;;;;5002727;28;20303;-73
2023/09/13 08:48:18;;;;;;;5.10;2.97;;;26.20;99.90;;;;;;5000878;28;20613;-73
2023/09/13 08:50:46;;;;;;;4.65;2.80;;;25.90;99.90;;;;;;4996620;28;20215;-73
2023/09/13 08:53:12;;;;;;;5.43;2.58;;;25.50;99.90;;;;;;5000645;28;20209;-71
2023/09/13 08:55:39;;;;;;;2.67;2.22;;;25.10;99.90;;;;;;4996856;28;20202;-73
2023/09/13 08:58:04;;;;;;;3.60;2.60;;;24.70;99.90;;;;;;5001057;28;20176;-73
2023/09/13 09:00:39;;;;;;;6.22;3.65;;;24.30;99.90;;;;;;5000000;28;20197;-73
2023/09/13 09:03:05;;;;;;;7.80;3.67;;;24.30;99.90;;;;;;5000688;28;20687;-72
2023/09/13 09:05:32;;;;;;;8.25;4.72;;;24.10;99.90;;;;;;5000492;28;20778;-73
2023/09/13 09:08:00;;;;;;;3.28;2.60;;;24.00;99.90;;;;;;5000528;28;20209;-73
2023/09/13 09:10:27;;;;;;;4.95;2.70;;;24.00;99.90;;;;;;4998836;28;20236;-73
2023/09/13 09:12:56;;;;;;;2.22;1.95;;;23.90;99.90;;;;;;5001331;28;20178;-73
2023/09/13 09:15:24;;;;;;;4.07;2.05;;;23.70;99.90;;;;;;4997435;28;20188;-73
2023/09/13 09:17:52;;;;;;;2.08;1.60;;;23.60;99.90;;;;;;4998245;28;20626;-72
2023/09/13 09:20:19;;;;;;;2.55;1.75;;;23.40;99.90;;;;;;5000246;28;20221;-73
2023/09/13 09:22:44;;;;;;;1.50;1.40;;;23.20;99.90;;;;;;4994340;28;20214;-71
2023/09/13 09:25:12;;;;;;;2.83;1.90;;;22.90;99.90;;;;;;5000046;28;20217;-73
2023/09/13 09:27:41;;;;;;;3.35;1.85;;;22.70;99.90;;;;;;4997465;28;20177;-72
2023/09/13 09:30:07;;;;;;;3.40;1.90;;;22.60;99.90;;;;;;5001119;28;20600;-73
2023/09/13 09:32:37;;;;;;;3.53;2.10;;;22.60;99.90;;;;;;4999852;28;20221;-73
2023/09/13 09:35:05;;;;;;;5.15;2.58;;;22.60;99.90;;;;;;5001155;28;20256;-72
2023/09/13 09:37:32;;;;;;;4.55;2.30;;;22.60;99.90;;;;;;5000046;28;20269;-72
2023/09/13 09:39:59;;;;;;;6.07;3.65;;;22.50;99.90;;;;;;4999608;28;20678;-70
2023/09/13 09:42:25;;;;;;;3.83;2.40;;;22.70;99.90;;;;;;4999519;28;20269;-73
2023/09/13 09:44:51;;;;;;;2.90;2.08;;;22.70;99.90;;;;;;5000178;28;20209;-71
2023/09/13 09:47:18;;;;;;;2.17;1.95;;;22.70;99.90;;;;;;4996280;28;20201;-74
2023/09/13 09:49:46;;;;;;;3.17;2.25;;;22.70;99.90;;;;;;4999069;28;20210;-71
2023/09/13 09:52:16;;;;;;;2.20;2.00;;;22.80;99.90;;;;;;5001696;28;20209;-71
2023/09/13 09:54:51;;;;;;;2.45;2.10;;;22.70;99.90;;;;;;4999953;28;20174;-72
2023/09/13 09:57:26;;;;;;;2.17;1.88;;;23.00;99.90;;;;;;5000848;28;20224;-72
2023/09/13 09:59:51;;;;;;;3.63;2.15;;;23.40;99.90;;;;;;5001303;28;20216;-72
2023/09/13 10:02:24;;;;;;;2.47;1.80;;;23.70;99.90;;;;;;4999852;28;20212;-72
2023/09/13 10:04:51;;;;;;;2.50;1.98;;;24.20;99.90;;;;;;5000280;28;20209;-74
2023/09/13 10:07:17;;;;;;;2.55;2.30;;;24.50;99.90;;;;;;4998234;28;20204;-72
2023/09/13 10:09:44;;;;;;;3.10;2.10;;;24.60;99.90;;;;;;5001482;28;20684;-73
2023/09/13 10:12:10;;;;;;;2.95;2.03;;;24.80;99.90;;;;;;4998873;28;20204;-72
2023/09/13 10:14:37;;;;;;;4.03;2.00;;;24.60;99.90;;;;;;4999134;28;21284;-73
2023/09/13 10:17:04;;;;;;;3.38;2.33;;;24.30;99.90;;;;;;5000552;28;20304;-73
2023/09/13 10:19:32;;;;;;;2.58;2.20;;;24.10;99.90;;;;;;4999841;28;20214;-73
2023/09/13 10:21:58;;;;;;;2.35;2.00;;;23.80;99.90;;;;;;5002820;28;20713;-72
2023/09/13 10:24:29;;;;;;;4.85;2.10;;;23.60;99.90;;;;;;5002960;28;20316;-71
2023/09/13 10:26:55;;;;;;;3.00;2.47;;;23.60;99.90;;;;;;4995176;28;20233;-72
2023/09/13 10:29:39;;;;;;;2.35;2.15;;;23.40;99.90;;;;;;5003543;28;20209;-72
2023/09/13 10:32:09;;;;;;;2.25;2.05;;;23.20;99.90;;;;;;5005316;28;20686;-73
2023/09/13 10:34:37;;;;;;;2.88;1.98;;;23.20;99.90;;;;;;5001650;28;20237;-73
2023/09/13 10:37:27;;;;;;;2.17;1.65;;;23.20;99.90;;;;;;5005426;28;20188;-72
2023/09/13 10:40:16;;;;;;;4.80;2.55;;;23.50;99.90;;;;;;4999597;28;20221;-71
2023/09/13 10:42:43;;;;;;;2.28;1.67;;;23.60;99.90;;;;;;4992972;28;20677;-74
2023/09/13 10:45:18;;;;;;;2.47;2.00;;;23.80;99.90;;;;;;5004761;28;20213;-73
2023/09/13 10:47:49;;;;;;;3.88;1.80;;;23.80;99.90;;;;;;5004472;28;20209;-73
2023/09/13 10:50:15;;;;;;;2.83;2.17;;;23.70;99.90;;;;;;5002943;28;20215;-73
2023/09/13 10:52:43;;;;;;;2.25;1.80;;;23.90;99.90;;;;;;5004153;28;20202;-73
2023/09/13 10:55:10;;;;;;;3.25;1.73;;;23.90;99.90;;;;;;5003895;28;20603;-73
2023/09/13 10:57:37;;;;;;;2.97;1.92;;;24.00;99.90;;;;;;5004039;28;20492;-72
2023/09/13 11:00:12;;;;;;;2.50;1.63;;;24.10;99.90;;;;;;5003731;28;20296;-73
2023/09/13 11:02:43;;;;;;;2.67;1.80;;;24.20;99.90;;;;;;5001602;28;20204;-73
2023/09/13 11:05:13;;;;;;;2.78;1.77;;;24.50;99.90;;;;;;5004954;28;20209;-73
2023/09/13 11:07:46;;;;;;;2.05;1.67;;;24.70;99.90;;;;;;5000061;28;20233;-74
2023/09/13 11:10:17;;;;;;;3.95;1.50;;;24.60;99.90;;;;;;4998855;28;20292;-71
2023/09/13 11:12:48;;;;;;;2.85;1.77;;;24.60;99.90;;;;;;5001741;28;20257;-73
2023/09/13 11:15:21;;;;;;;2.25;1.80;;;24.50;99.90;;;;;;5004867;28;20244;-73
2023/09/13 11:17:47;;;;;;;2.33;2.10;;;24.30;99.90;;;;;;5001027;28;20217;-73
2023/09/13 11:20:22;;;;;;;4.10;2.00;;;24.60;99.90;;;;;;4997734;28;20216;-71
2023/09/13 11:23:05;;;;;;;3.15;2.22;;;24.70;99.90;;;;;;5001221;28;20209;-73
2023/09/13 11:25:54;;;;;;;3.05;1.70;;;24.60;99.90;;;;;;4998431;28;20252;-73
2023/09/13 11:28:38;;;;;;;3.53;1.50;;;24.40;99.90;;;;;;5002320;28;20633;-73
2023/09/13 11:31:06;;;;;;;2.45;1.77;;;24.20;99.90;;;;;;5001259;28;20571;-73
2023/09/13 11:33:39;;;;;;;3.63;2.08;;;24.10;99.90;;;;;;5000850;28;20208;-73
2023/09/13 11:36:05;;;;;;;6.30;2.13;;;23.90;99.90;;;;;;5002324;28;20209;-73
2023/09/13 11:38:35;;;;;;;2.58;2.00;;;23.70;99.90;;;;;;4995737;28;20276;-73
2023/09/13 11:41:01;;;;;;;2.10;1.77;;;23.50;99.90;;;;;;5002095;28;20325;-73
2023/09/13 11:43:31;;;;;;;4.15;2.10;;;23.20;99.90;;;;;;5003400;28;20216;-72
2023/09/13 11:45:57;;;;;;;3.28;1.80;;;23.20;99.90;;;;;;4997662;28;20217;-73
2023/09/13 11:48:26;;;;;;;2.58;1.67;;;23.00;99.90;;;;;;5000468;28;20223;-73
2023/09/13 11:50:52;;;;;;;2.05;1.85;;;23.00;99.90;;;;;;5001781;28;20300;-73
2023/09/13 11:53:28;;;;;;;3.15;2.10;;;22.90;99.90;;;;;;5003423;28;20205;-73
2023/09/13 11:55:56;;;;;;;3.00;2.47;;;22.90;99.90;;;;;;4999644;28;20260;-73
2023/09/13 11:58:32;;;;;;;4.75;2.10;;;22.80;99.90;;;;;;5002802;28;20207;-73
2023/09/13 12:00:59;;;;;;;3.05;2.22;;;22.90;99.90;;;;;;5003136;28;20809;-73
2023/09/13 12:03:27;;;;;;;4.05;2.60;;;22.90;99.90;;;;;;5001801;28;20182;-73
2023/09/13 12:05:53;;;;;;;2.70;1.70;;;22.90;99.90;;;;;;5002267;28;20213;-73
2023/09/13 12:08:23;;;;;;;3.00;2.05;;;22.90;99.90;;;;;;5001505;28;20254;-73
2023/09/13 12:10:50;;;;;;;2.63;1.92;;;22.90;99.90;;;;;;5000851;28;20304;-73
2023/09/13 12:13:17;;;;;;;5.22;2.40;;;23.00;99.90;;;;;;5000225;28;20212;-74
2023/09/13 12:16:02;;;;;;;6.60;3.40;;;23.00;99.90;;;;;;5000826;28;20184;-73
2023/09/13 12:18:30;;;;;;;2.72;1.95;;;22.90;99.90;;;;;;4989392;28;20599;-72
2023/09/13 12:20:57;;;;;;;4.03;2.92;;;23.10;99.90;;;;;;4998583;28;20222;-73
2023/09/13 12:23:23;;;;;;;3.10;2.60;;;23.20;99.90;;;;;;5002683;28;20209;-73
2023/09/13 12:25:49;;;;;;;2.40;2.15;;;23.30;99.90;;;;;;4997334;28;20209;-73
2023/09/13 12:28:29;;;;;;;1.92;1.73;;;23.20;99.90;;;;;;5003502;28;20228;-73
2023/09/13 12:30:55;;;;;;;1.95;1.70;;;23.10;99.90;;;;;;4997017;28;20731;-73
2023/09/13 12:33:23;;;;;;;2.40;1.70;;;22.90;99.90;;;;;;5001783;28;20332;-73
2023/09/13 12:35:50;;;;;;;2.40;2.05;;;22.80;99.90;;;;;;5001001;28;20237;-73
2023/09/13 12:38:17;;;;;;;2.22;1.60;;;22.80;99.90;;;;;;5001454;28;20688;-73
2023/09/13 12:41:00;;;;;;;1.92;1.73;;;22.70;99.90;;;;;;4999831;28;20321;-73
2023/09/13 12:43:29;;;;;;;1.80;1.60;;;22.70;99.90;;;;;;5000595;28;20279;-73
2023/09/13 12:45:55;;;;;;;2.15;1.85;;;22.80;99.90;;;;;;5001467;28;20267;-73
2023/09/13 12:48:23;;;;;;;2.28;1.60;;;22.90;99.90;;;;;;5003817;28;20180;-72